sensor_id;sensor_type;location;lat;lon;timestamp;pressure;altitude;pressure_sealevel;temperature;humidity
44144;BME280;43510;51.920;4.492;2022-09-03T00:04:43;68288.47;;;21.92;41.18
44144;BME280;43510;51.920;4.492;2022-09-03T00:07:27;68293.00;;;21.96;41.38
44144;BME280;43510;51.920;4.492;2022-09-03T00:10:03;68284.09;;;21.91;41.41
44144;BME280;43510;51.920;4.492;2022-09-03T00:12:36;68281.28;;;21.88;41.42
44144;BME280;43510;51.920;4.492;2022-09-03T00:15:10;68279.31;;;21.82;41.60
44144;BME280;43510;51.920;4.492;2022-09-03T00:18:06;68281.72;;;21.86;41.35
44144;BME280;43510;51.920;4.492;2022-09-03T00:20:40;68272.13;;;21.78;41.61
44144;BME280;43510;51.920;4.492;2022-09-03T00:23:09;68270.31;;;21.74;41.70
44144;BME280;43510;51.920;4.492;2022-09-03T00:25:47;68278.16;;;21.81;41.51
44144;BME280;43510;51.920;4.492;2022-09-03T00:28:18;68265.38;;;21.72;41.89
44144;BME280;43510;51.920;4.492;2022-09-03T00:30:47;68267.63;;;21.74;41.78
44144;BME280;43510;51.920;4.492;2022-09-03T00:33:23;68275.94;;;21.79;42.21
44144;BME280;43510;51.920;4.492;2022-09-03T00:36:02;68283.81;;;21.86;42.00
44144;BME280;43510;51.920;4.492;2022-09-03T00:38:29;68278.31;;;21.83;41.75
44144;BME280;43510;51.920;4.492;2022-09-03T00:43:53;68271.72;;;21.80;42.18
44144;BME280;43510;51.920;4.492;2022-09-03T00:46:28;68265.53;;;21.74;42.18
44144;BME280;43510;51.920;4.492;2022-09-03T00:52:17;68261.59;;;21.71;42.87
44144;BME280;43510;51.920;4.492;2022-09-03T00:54:59;68255.66;;;21.61;42.81
44144;BME280;43510;51.920;4.492;2022-09-03T01:00:21;68256.38;;;21.64;42.48
44144;BME280;43510;51.920;4.492;2022-09-03T01:03:06;68258.06;;;21.65;42.92
44144;BME280;43510;51.920;4.492;2022-09-03T01:08:19;68256.78;;;21.62;42.96
44144;BME280;43510;51.920;4.492;2022-09-03T01:13:30;68244.41;;;21.50;43.13
44144;BME280;43510;51.920;4.492;2022-09-03T01:16:10;68242.84;;;21.51;43.05
44144;BME280;43510;51.920;4.492;2022-09-03T01:24:37;68226.00;;;21.36;43.24
44144;BME280;43510;51.920;4.492;2022-09-03T01:32:47;68218.81;;;21.32;43.83
44144;BME280;43510;51.920;4.492;2022-09-03T01:40:45;68219.66;;;21.28;43.71
44144;BME280;43510;51.920;4.492;2022-09-03T01:51:11;68205.56;;;21.15;44.19
44144;BME280;43510;51.920;4.492;2022-09-03T01:59:15;68197.41;;;21.13;43.93
44144;BME280;43510;51.920;4.492;2022-09-03T02:01:54;68188.41;;;21.05;44.55
44144;BME280;43510;51.920;4.492;2022-09-03T02:04:25;68188.28;;;21.02;44.18
44144;BME280;43510;51.920;4.492;2022-09-03T02:06:53;68190.50;;;21.04;44.26
44144;BME280;43510;51.920;4.492;2022-09-03T02:09:20;68190.38;;;21.02;44.17
44144;BME280;43510;51.920;4.492;2022-09-03T02:11:51;68192.06;;;21.03;44.35
44144;BME280;43510;51.920;4.492;2022-09-03T02:14:19;68185.47;;;21.00;44.03
44144;BME280;43510;51.920;4.492;2022-09-03T02:16:46;68178.28;;;20.96;44.69
44144;BME280;43510;51.920;4.492;2022-09-03T02:19:13;68185.31;;;20.97;44.61
44144;BME280;43510;51.920;4.492;2022-09-03T02:21:49;68178.72;;;20.94;44.72
44144;BME280;43510;51.920;4.492;2022-09-03T02:24:16;68170.81;;;20.87;44.97
44144;BME280;43510;51.920;4.492;2022-09-03T02:26:42;68169.41;;;20.81;45.06
44144;BME280;43510;51.920;4.492;2022-09-03T02:29:09;68154.94;;;20.70;45.48
44144;BME280;43510;51.920;4.492;2022-09-03T02:31:35;68143.41;;;20.64;45.82
44144;BME280;43510;51.920;4.492;2022-09-03T02:34:00;68146.25;;;20.67;45.55
44144;BME280;43510;51.920;4.492;2022-09-03T02:36:33;68137.66;;;20.57;46.11
44144;BME280;43510;51.920;4.492;2022-09-03T02:38:59;68123.19;;;20.46;46.05
44144;BME280;43510;51.920;4.492;2022-09-03T02:41:24;68127.53;;;20.48;45.72
44144;BME280;43510;51.920;4.492;2022-09-03T02:43:58;68113.63;;;20.38;46.21
44144;BME280;43510;51.920;4.492;2022-09-03T02:46:47;68098.13;;;20.19;46.96
44144;BME280;43510;51.920;4.492;2022-09-03T02:49:14;68100.66;;;20.26;46.46
44144;BME280;43510;51.920;4.492;2022-09-03T02:51:41;68093.50;;;20.22;46.63
44144;BME280;43510;51.920;4.492;2022-09-03T02:54:07;68097.00;;;20.18;46.58
44144;BME280;43510;51.920;4.492;2022-09-03T02:56:33;68094.34;;;20.18;46.66
44144;BME280;43510;51.920;4.492;2022-09-03T02:58:59;68095.16;;;20.14;46.98
44144;BME280;43510;51.920;4.492;2022-09-03T03:01:25;68087.44;;;20.09;47.35
44144;BME280;43510;51.920;4.492;2022-09-03T03:03:51;68084.22;;;20.09;47.22
44144;BME280;43510;51.920;4.492;2022-09-03T03:06:17;68078.03;;;20.03;47.41
44144;BME280;43510;51.920;4.492;2022-09-03T03:08:47;68076.34;;;20.02;47.40
44144;BME280;43510;51.920;4.492;2022-09-03T03:11:14;68076.19;;;19.99;47.59
44144;BME280;43510;51.920;4.492;2022-09-03T03:13:43;68062.28;;;19.89;47.94
44144;BME280;43510;51.920;4.492;2022-09-03T03:16:08;68070.00;;;19.93;47.91
44144;BME280;43510;51.920;4.492;2022-09-03T03:18:34;68071.13;;;19.94;48.35
44144;BME280;43510;51.920;4.492;2022-09-03T03:21:04;68065.09;;;19.91;48.59
44144;BME280;43510;51.920;4.492;2022-09-03T03:23:31;68064.69;;;19.93;48.16
44144;BME280;43510;51.920;4.492;2022-09-03T03:26:06;68068.31;;;19.92;48.24
44144;BME280;43510;51.920;4.492;2022-09-03T03:28:34;68062.69;;;19.87;48.09
44144;BME280;43510;51.920;4.492;2022-09-03T03:31:12;68059.63;;;19.89;48.13
44144;BME280;43510;51.920;4.492;2022-09-03T03:33:40;68062.53;;;19.84;48.29
44144;BME280;43510;51.920;4.492;2022-09-03T03:36:12;68057.22;;;19.84;48.38
44144;BME280;43510;51.920;4.492;2022-09-03T03:38:38;68057.94;;;19.87;48.34
44144;BME280;43510;51.920;4.492;2022-09-03T03:41:09;68058.91;;;19.86;48.52
44144;BME280;43510;51.920;4.492;2022-09-03T03:43:35;68057.22;;;19.84;48.92
44144;BME280;43510;51.920;4.492;2022-09-03T03:46:00;68051.59;;;19.79;48.93
44144;BME280;43510;51.920;4.492;2022-09-03T03:48:26;68054.56;;;19.84;49.09
44144;BME280;43510;51.920;4.492;2022-09-03T03:50:52;68046.56;;;19.75;49.29
44144;BME280;43510;51.920;4.492;2022-09-03T03:53:17;68047.53;;;19.73;49.51
44144;BME280;43510;51.920;4.492;2022-09-03T03:55:43;68052.16;;;19.80;50.01
44144;BME280;43510;51.920;4.492;2022-09-03T03:58:08;68023.09;;;19.56;50.44
44144;BME280;43510;51.920;4.492;2022-09-03T04:00:33;68028.72;;;19.61;50.23
44144;BME280;43510;51.920;4.492;2022-09-03T04:03:03;68038.53;;;19.65;50.35
44144;BME280;43510;51.920;4.492;2022-09-03T04:05:28;68037.56;;;19.67;50.34
44144;BME280;43510;51.920;4.492;2022-09-03T04:07:54;68032.50;;;19.62;50.82
44144;BME280;43510;51.920;4.492;2022-09-03T04:10:20;68024.78;;;19.58;50.46
44144;BME280;43510;51.920;4.492;2022-09-03T04:12:45;68031.78;;;19.59;50.41
44144;BME280;43510;51.920;4.492;2022-09-03T04:15:13;68034.59;;;19.62;50.34
44144;BME280;43510;51.920;4.492;2022-09-03T04:17:39;68026.88;;;19.57;50.19
44144;BME280;43510;51.920;4.492;2022-09-03T04:20:04;68028.41;;;19.56;50.27
44144;BME280;43510;51.920;4.492;2022-09-03T04:22:30;68019.97;;;19.48;50.58
44144;BME280;43510;51.920;4.492;2022-09-03T04:24:55;68021.66;;;19.50;50.84
44144;BME280;43510;51.920;4.492;2022-09-03T04:27:21;68019.16;;;19.52;50.57
44144;BME280;43510;51.920;4.492;2022-09-03T04:29:46;68022.53;;;19.55;50.30
44144;BME280;43510;51.920;4.492;2022-09-03T04:32:11;68019.75;;;19.53;49.27
44144;BME280;43510;51.920;4.492;2022-09-03T04:34:55;68012.25;;;19.44;49.64
44144;BME280;43510;51.920;4.492;2022-09-03T04:37:21;68006.78;;;19.41;50.14
44144;BME280;43510;51.920;4.492;2022-09-03T04:39:47;68008.47;;;19.43;50.03
44144;BME280;43510;51.920;4.492;2022-09-03T04:42:13;68004.38;;;19.37;49.80
44144;BME280;43510;51.920;4.492;2022-09-03T04:44:38;68009.28;;;19.39;49.81
44144;BME280;43510;51.920;4.492;2022-09-03T04:47:05;68004.81;;;19.35;50.10
44144;BME280;43510;51.920;4.492;2022-09-03T04:49:30;68003.28;;;19.36;50.64
44144;BME280;43510;51.920;4.492;2022-09-03T04:51:56;67991.22;;;19.30;50.42
44144;BME280;43510;51.920;4.492;2022-09-03T04:54:21;67999.19;;;19.30;50.76
44144;BME280;43510;51.920;4.492;2022-09-03T04:56:47;67989.94;;;19.26;50.78
44144;BME280;43510;51.920;4.492;2022-09-03T04:59:12;67992.03;;;19.26;51.53
44144;BME280;43510;51.920;4.492;2022-09-03T05:01:38;67992.03;;;19.26;51.80
44144;BME280;43510;51.920;4.492;2022-09-03T05:04:05;67989.94;;;19.26;51.80
44144;BME280;43510;51.920;4.492;2022-09-03T05:06:32;67988.25;;;19.25;51.75
44144;BME280;43510;51.920;4.492;2022-09-03T05:08:58;67992.75;;;19.29;52.05
44144;BME280;43510;51.920;4.492;2022-09-03T05:11:25;67990.34;;;19.24;51.47
44144;BME280;43510;51.920;4.492;2022-09-03T05:13:52;67992.44;;;19.24;52.20
44144;BME280;43510;51.920;4.492;2022-09-03T05:16:19;67988.81;;;19.25;52.40
44144;BME280;43510;51.920;4.492;2022-09-03T05:18:45;67993.16;;;19.27;52.12
44144;BME280;43510;51.920;4.492;2022-09-03T05:21:14;67995.97;;;19.29;52.71
44144;BME280;43510;51.920;4.492;2022-09-03T05:23:45;68004.25;;;19.34;52.83
44144;BME280;43510;51.920;4.492;2022-09-03T05:28:43;68019.44;;;19.48;52.77
44144;BME280;43510;51.920;4.492;2022-09-03T05:31:14;68013.00;;;19.47;52.85
44144;BME280;43510;51.920;4.492;2022-09-03T05:33:44;68020.88;;;19.54;52.68
44144;BME280;43510;51.920;4.492;2022-09-03T05:36:12;68026.47;;;19.59;52.46
44144;BME280;43510;51.920;4.492;2022-09-03T05:38:38;68036.44;;;19.66;51.70
44144;BME280;43510;51.920;4.492;2022-09-03T05:41:06;68038.69;;;19.68;51.78
44144;BME280;43510;51.920;4.492;2022-09-03T05:43:32;68041.50;;;19.70;52.08
44144;BME280;43510;51.920;4.492;2022-09-03T05:45:59;68045.59;;;19.76;51.48
44144;BME280;43510;51.920;4.492;2022-09-03T05:48:26;68055.56;;;19.83;50.66
44144;BME280;43510;51.920;4.492;2022-09-03T05:51:03;68057.22;;;19.84;51.46
44144;BME280;43510;51.920;4.492;2022-09-03T05:53:32;68058.78;;;19.83;50.87
44144;BME280;43510;51.920;4.492;2022-09-03T05:55:59;68057.94;;;19.87;49.82
44144;BME280;43510;51.920;4.492;2022-09-03T05:58:33;68073.69;;;20.02;49.60
44144;BME280;43510;51.920;4.492;2022-09-03T06:01:08;68083.50;;;20.06;49.97
44144;BME280;43510;51.920;4.492;2022-09-03T06:03:34;68072.97;;;19.98;48.79
44144;BME280;43510;51.920;4.492;2022-09-03T06:06:00;68062.44;;;19.91;49.19
44144;BME280;43510;51.920;4.492;2022-09-03T06:08:25;68080.44;;;20.08;49.03
44144;BME280;43510;51.920;4.492;2022-09-03T06:10:57;68105.56;;;20.28;48.76
44144;BME280;43510;51.920;4.492;2022-09-03T06:13:23;68157.31;;;20.74;47.73
44144;BME280;43510;51.920;4.492;2022-09-03T06:15:48;68148.91;;;20.67;47.27
44144;BME280;43510;51.920;4.492;2022-09-03T06:18:13;68155.09;;;20.72;47.01
44144;BME280;43510;51.920;4.492;2022-09-03T06:20:39;68153.00;;;20.73;47.05
44144;BME280;43510;51.920;4.492;2022-09-03T06:23:05;68157.03;;;20.69;47.34
44144;BME280;43510;51.920;4.492;2022-09-03T06:25:31;68167.16;;;20.78;47.50
44144;BME280;43510;51.920;4.492;2022-09-03T06:27:56;68160.28;;;20.79;47.34
44144;BME280;43510;51.920;4.492;2022-09-03T06:30:22;68171.53;;;20.90;47.36
44144;BME280;43510;51.920;4.492;2022-09-03T06:32:55;68188.28;;;21.02;47.12
44144;BME280;43510;51.920;4.492;2022-09-03T06:35:22;68187.28;;;21.04;46.91
44144;BME280;43510;51.920;4.492;2022-09-03T06:37:47;68208.69;;;21.23;46.62
44144;BME280;43510;51.920;4.492;2022-09-03T06:40:13;68227.81;;;21.40;46.05
44144;BME280;43510;51.920;4.492;2022-09-03T06:42:54;68248.50;;;21.56;46.21
44144;BME280;43510;51.920;4.492;2022-09-03T06:45:20;68239.78;;;21.53;45.43
44144;BME280;43510;51.920;4.492;2022-09-03T06:47:45;68262.56;;;21.69;45.34
44144;BME280;43510;51.920;4.492;2022-09-03T06:50:11;68281.84;;;21.89;44.72
44144;BME280;43510;51.920;4.492;2022-09-03T06:52:36;68300.88;;;22.04;44.22
44144;BME280;43510;51.920;4.492;2022-09-03T06:55:01;68304.41;;;22.09;44.30
44144;BME280;43510;51.920;4.492;2022-09-03T06:57:28;68313.81;;;22.15;43.73
44144;BME280;43510;51.920;4.492;2022-09-03T06:59:54;68322.97;;;22.26;43.64
44144;BME280;43510;51.920;4.492;2022-09-03T07:02:20;68341.25;;;22.37;43.80
44144;BME280;43510;51.920;4.492;2022-09-03T07:04:47;68331.84;;;22.31;43.15
44144;BME280;43510;51.920;4.492;2022-09-03T07:07:14;68346.91;;;22.43;42.86
44144;BME280;43510;51.920;4.492;2022-09-03T07:09:40;68360.97;;;22.55;43.21
44144;BME280;43510;51.920;4.492;2022-09-03T07:12:06;68365.47;;;22.59;42.85
44144;BME280;43510;51.920;4.492;2022-09-03T07:14:31;68377.06;;;22.74;42.83
44144;BME280;43510;51.920;4.492;2022-09-03T07:16:57;68393.81;;;22.87;42.06
44144;BME280;43510;51.920;4.492;2022-09-03T07:19:24;68393.25;;;22.87;41.65
44144;BME280;43510;51.920;4.492;2022-09-03T07:21:49;68402.97;;;22.98;41.76
44144;BME280;43510;51.920;4.492;2022-09-03T07:24:15;68411.44;;;23.05;41.71
44144;BME280;43510;51.920;4.492;2022-09-03T07:26:41;68421.28;;;23.09;41.77
44144;BME280;43510;51.920;4.492;2022-09-03T07:29:13;68425.78;;;23.23;41.37
44144;BME280;43510;51.920;4.492;2022-09-03T07:31:42;68444.09;;;23.35;41.03
44144;BME280;43510;51.920;4.492;2022-09-03T07:34:11;68456.91;;;23.44;40.96
44144;BME280;43510;51.920;4.492;2022-09-03T07:36:39;68443.53;;;23.34;40.96
44144;BME280;43510;51.920;4.492;2022-09-03T07:39:09;68447.34;;;23.35;41.01
44144;BME280;43510;51.920;4.492;2022-09-03T07:41:35;68458.75;;;23.48;40.73
44144;BME280;43510;51.920;4.492;2022-09-03T07:44:07;68487.38;;;23.71;40.75
44144;BME280;43510;51.920;4.492;2022-09-03T07:46:35;68492.44;;;23.76;40.22
44144;BME280;43510;51.920;4.492;2022-09-03T07:49:01;68502.47;;;23.82;39.75
44144;BME280;43510;51.920;4.492;2022-09-03T07:51:30;68514.00;;;23.97;39.68
44144;BME280;43510;51.920;4.492;2022-09-03T07:53:57;68517.41;;;24.00;39.42
44144;BME280;43510;51.920;4.492;2022-09-03T07:56:24;68523.31;;;24.01;39.26
44144;BME280;43510;51.920;4.492;2022-09-03T07:58:50;68514.72;;;24.00;39.50
44144;BME280;43510;51.920;4.492;2022-09-03T08:01:17;68487.50;;;23.74;39.30
44144;BME280;43510;51.920;4.492;2022-09-03T08:03:49;68497.94;;;23.78;39.50
44144;BME280;43510;51.920;4.492;2022-09-03T08:06:17;68507.13;;;23.89;39.88
44144;BME280;43510;51.920;4.492;2022-09-03T08:08:43;68514.00;;;23.97;39.57
44144;BME280;43510;51.920;4.492;2022-09-03T08:11:16;68536.00;;;24.17;39.58
44144;BME280;43510;51.920;4.492;2022-09-03T08:13:46;68555.03;;;24.32;39.40
44144;BME280;43510;51.920;4.492;2022-09-03T08:16:14;68565.22;;;24.41;38.73
44144;BME280;43510;51.920;4.492;2022-09-03T08:18:39;68575.78;;;24.48;38.80
44144;BME280;43510;51.920;4.492;2022-09-03T08:21:16;68598.06;;;24.73;38.37
44144;BME280;43510;51.920;4.492;2022-09-03T08:23:46;68634.03;;;25.03;37.88
44144;BME280;43510;51.920;4.492;2022-09-03T08:26:14;68669.88;;;25.30;37.23
44144;BME280;43510;51.920;4.492;2022-09-03T08:28:40;68689.34;;;25.52;36.92
44144;BME280;43510;51.920;4.492;2022-09-03T08:31:15;68690.34;;;25.60;37.01
44144;BME280;43510;51.920;4.492;2022-09-03T08:36:27;68711.53;;;25.75;37.10
44144;BME280;43510;51.920;4.492;2022-09-03T08:47:01;68729.88;;;25.86;36.59
44144;BME280;43510;51.920;4.492;2022-09-03T08:49:53;68725.63;;;25.87;36.47
44144;BME280;43510;51.920;4.492;2022-09-03T08:55:30;68725.06;;;25.87;36.29
44144;BME280;43510;51.920;4.492;2022-09-03T09:01:03;68728.47;;;25.90;35.72
44144;BME280;43510;51.920;4.492;2022-09-03T09:09:19;68736.66;;;25.92;35.94
44144;BME280;43510;51.920;4.492;2022-09-03T09:12:03;68727.34;;;25.89;36.30
44144;BME280;43510;51.920;4.492;2022-09-03T09:20:13;68730.44;;;25.87;36.19
44144;BME280;43510;51.920;4.492;2022-09-03T09:22:48;68740.88;;;26.01;35.87
44144;BME280;43510;51.920;4.492;2022-09-03T09:25:21;68750.19;;;26.05;35.62
44144;BME280;43510;51.920;4.492;2022-09-03T09:27:51;68765.03;;;26.20;35.71
44144;BME280;43510;51.920;4.492;2022-09-03T09:30:18;68778.16;;;26.34;35.50
44144;BME280;43510;51.920;4.492;2022-09-03T09:32:45;68775.91;;;26.32;35.81
44144;BME280;43510;51.920;4.492;2022-09-03T09:35:12;68779.28;;;26.35;35.66
44144;BME280;43510;51.920;4.492;2022-09-03T09:37:52;68790.59;;;26.46;35.85
44144;BME280;43510;51.920;4.492;2022-09-03T09:40:32;68799.06;;;26.53;35.46
44144;BME280;43510;51.920;4.492;2022-09-03T09:43:13;68781.56;;;26.37;35.47
44144;BME280;43510;51.920;4.492;2022-09-03T09:45:42;68787.91;;;26.46;35.80
44144;BME280;43510;51.920;4.492;2022-09-03T09:48:24;68802.88;;;26.54;35.42
44144;BME280;43510;51.920;4.492;2022-09-03T09:51:21;68832.13;;;26.78;34.96
44144;BME280;43510;51.920;4.492;2022-09-03T09:53:47;68826.75;;;26.78;34.61
44144;BME280;43510;51.920;4.492;2022-09-03T09:56:22;68843.03;;;26.90;34.74
44144;BME280;43510;51.920;4.492;2022-09-03T09:58:48;68873.81;;;27.13;34.71
44144;BME280;43510;51.920;4.492;2022-09-03T10:01:18;68893.75;;;27.33;34.09
44144;BME280;43510;51.920;4.492;2022-09-03T10:03:54;68891.75;;;27.36;34.44
44144;BME280;43510;51.920;4.492;2022-09-03T10:06:27;68898.53;;;27.42;34.34
44144;BME280;43510;51.920;4.492;2022-09-03T10:09:18;68906.59;;;27.52;33.68
44144;BME280;43510;51.920;4.492;2022-09-03T10:12:28;68925.09;;;27.66;33.41
44144;BME280;43510;51.920;4.492;2022-09-03T10:15:00;68933.59;;;27.74;33.23
44144;BME280;43510;51.920;4.492;2022-09-03T10:20:23;68970.22;;;28.04;32.86
44144;BME280;43510;51.920;4.492;2022-09-03T10:28:08;69015.34;;;28.42;32.22
44144;BME280;43510;51.920;4.492;2022-09-03T10:30:50;69025.78;;;28.56;32.22
44144;BME280;43510;51.920;4.492;2022-09-03T10:33:29;69021.25;;;28.52;32.14
44144;BME280;43510;51.920;4.492;2022-09-03T10:36:15;69025.78;;;28.56;32.32
44144;BME280;43510;51.920;4.492;2022-09-03T10:38:49;69036.97;;;28.64;31.81
44144;BME280;43510;51.920;4.492;2022-09-03T10:46:28;69027.91;;;28.56;31.70
44144;BME280;43510;51.920;4.492;2022-09-03T10:49:19;69031.75;;;28.57;31.48
44144;BME280;43510;51.920;4.492;2022-09-03T10:59:57;69042.75;;;28.71;31.40
44144;BME280;43510;51.920;4.492;2022-09-03T11:05:09;69034.13;;;28.61;29.97
44144;BME280;43510;51.920;4.492;2022-09-03T11:07:44;69027.59;;;28.60;30.25
44144;BME280;43510;51.920;4.492;2022-09-03T11:10:21;69038.22;;;28.67;30.63
44144;BME280;43510;51.920;4.492;2022-09-03T11:13:12;69050.69;;;28.78;29.98
44144;BME280;43510;51.920;4.492;2022-09-03T11:16:01;69071.50;;;28.95;29.52
44144;BME280;43510;51.920;4.492;2022-09-03T11:18:36;69063.00;;;28.87;30.05
44144;BME280;43510;51.920;4.492;2022-09-03T11:21:09;69064.97;;;28.94;29.69
44144;BME280;43510;51.920;4.492;2022-09-03T11:23:40;69061.31;;;28.86;29.89
44144;BME280;43510;51.920;4.492;2022-09-03T11:26:09;69053.38;;;28.78;30.34
44144;BME280;43510;51.920;4.492;2022-09-03T11:31:38;69051.56;;;28.74;30.48
44144;BME280;43510;51.920;4.492;2022-09-03T11:36:38;69048.88;;;28.74;30.58
44144;BME280;43510;51.920;4.492;2022-09-03T11:39:24;69058.59;;;28.86;30.74
44144;BME280;43510;51.920;4.492;2022-09-03T11:41:59;69070.38;;;28.94;30.43
44144;BME280;43510;51.920;4.492;2022-09-03T11:44:36;69061.44;;;28.88;30.06
44144;BME280;43510;51.920;4.492;2022-09-03T11:47:54;69069.50;;;28.98;29.93
44144;BME280;43510;51.920;4.492;2022-09-03T11:52:47;69109.97;;;29.29;29.10
44144;BME280;43510;51.920;4.492;2022-09-03T11:58:19;69135.47;;;29.52;29.89
44144;BME280;43510;51.920;4.492;2022-09-03T12:00:46;69138.56;;;29.59;29.68
44144;BME280;43510;51.920;4.492;2022-09-03T12:03:14;69135.88;;;29.50;30.04
44144;BME280;43510;51.920;4.492;2022-09-03T12:09:01;69170.00;;;29.83;29.33
44144;BME280;43510;51.920;4.492;2022-09-03T12:11:56;69167.28;;;29.83;29.89
44144;BME280;43510;51.920;4.492;2022-09-03T12:17:27;69171.81;;;29.87;28.93
44144;BME280;43510;51.920;4.492;2022-09-03T12:19:57;69179.50;;;29.89;28.70
44144;BME280;43510;51.920;4.492;2022-09-03T12:22:26;69186.88;;;29.95;28.61
44144;BME280;43510;51.920;4.492;2022-09-03T12:25:14;69196.19;;;30.09;28.69
44144;BME280;43510;51.920;4.492;2022-09-03T12:27:43;69178.63;;;29.93;28.81
44144;BME280;43510;51.920;4.492;2022-09-03T12:30:22;69169.56;;;29.85;28.63
44144;BME280;43510;51.920;4.492;2022-09-03T12:32:50;69166.47;;;29.77;28.66
44144;BME280;43510;51.920;4.492;2022-09-03T12:35:20;69152.00;;;29.69;28.68
44144;BME280;43510;51.920;4.492;2022-09-03T12:37:46;69140.13;;;29.58;28.98
44144;BME280;43510;51.920;4.492;2022-09-03T12:40:25;69141.69;;;29.57;29.40
44144;BME280;43510;51.920;4.492;2022-09-03T12:42:52;69145.22;;;29.63;28.99
44144;BME280;43510;51.920;4.492;2022-09-03T12:45:23;69146.22;;;29.61;29.20
44144;BME280;43510;51.920;4.492;2022-09-03T12:47:49;69153.13;;;29.70;29.07
44144;BME280;43510;51.920;4.492;2022-09-03T12:50:18;69155.16;;;29.67;28.86
44144;BME280;43510;51.920;4.492;2022-09-03T12:52:47;69163.63;;;29.75;28.78
44144;BME280;43510;51.920;4.492;2022-09-03T12:55:35;69161.06;;;29.77;28.72
44144;BME280;43510;51.920;4.492;2022-09-03T12:58:04;69160.06;;;29.79;28.57
44144;BME280;43510;51.920;4.492;2022-09-03T13:00:35;69161.63;;;29.78;28.80
44144;BME280;43510;51.920;4.492;2022-09-03T13:03:05;69159.94;;;29.76;28.46
44144;BME280;43510;51.920;4.492;2022-09-03T13:08:07;69147.78;;;29.60;29.21
44144;BME280;43510;51.920;4.492;2022-09-03T13:10:41;69140.56;;;29.56;29.55
44144;BME280;43510;51.920;4.492;2022-09-03T13:13:27;69147.34;;;29.62;29.46
44144;BME280;43510;51.920;4.492;2022-09-03T13:18:56;69157.09;;;29.74;29.43
44144;BME280;43510;51.920;4.492;2022-09-03T13:29:33;69154.84;;;29.72;29.14
44144;BME280;43510;51.920;4.492;2022-09-03T13:35:01;69179.75;;;29.94;29.19
44144;BME280;43510;51.920;4.492;2022-09-03T13:37:37;69169.00;;;29.84;29.23
44144;BME280;43510;51.920;4.492;2022-09-03T13:40:18;69156.97;;;29.71;29.90
44144;BME280;43510;51.920;4.492;2022-09-03T13:42:54;69139.69;;;29.60;29.61
44144;BME280;43510;51.920;4.492;2022-09-03T13:45:40;69137.16;;;29.53;29.55
44144;BME280;43510;51.920;4.492;2022-09-03T13:48:27;69129.94;;;29.49;29.20
44144;BME280;43510;51.920;4.492;2022-09-03T13:51:24;69148.91;;;29.61;29.28
44144;BME280;43510;51.920;4.492;2022-09-03T13:56:28;69141.25;;;29.59;28.58
44144;BME280;43510;51.920;4.492;2022-09-03T14:07:25;69125.28;;;29.43;29.67
44144;BME280;43510;51.920;4.492;2022-09-03T14:12:44;69136.47;;;29.50;29.53
44144;BME280;43510;51.920;4.492;2022-09-03T14:15:23;69131.75;;;29.53;29.17
44144;BME280;43510;51.920;4.492;2022-09-03T14:18:07;69141.56;;;29.55;29.45
44144;BME280;43510;51.920;4.492;2022-09-03T14:20:48;69126.53;;;29.46;29.00
44144;BME280;43510;51.920;4.492;2022-09-03T14:23:41;69123.69;;;29.44;29.16
44144;BME280;43510;51.920;4.492;2022-09-03T14:26:16;69117.47;;;29.38;29.90
44144;BME280;43510;51.920;4.492;2022-09-03T14:28:47;69117.22;;;29.33;29.70
44144;BME280;43510;51.920;4.492;2022-09-03T14:31:33;69114.53;;;29.33;29.83
44144;BME280;43510;51.920;4.492;2022-09-03T14:34:25;69104.44;;;29.27;29.46
44144;BME280;43510;51.920;4.492;2022-09-03T14:37:08;69111.13;;;29.30;29.86
44144;BME280;43510;51.920;4.492;2022-09-03T14:39:46;69104.31;;;29.24;29.56
44144;BME280;43510;51.920;4.492;2022-09-03T14:42:37;69108.72;;;29.26;29.68
44144;BME280;43510;51.920;4.492;2022-09-03T14:56:23;69102.06;;;29.22;29.49
44144;BME280;43510;51.920;4.492;2022-09-03T14:59:04;69095.97;;;29.19;29.56
44144;BME280;43510;51.920;4.492;2022-09-03T15:01:35;69099.34;;;29.22;29.52
44144;BME280;43510;51.920;4.492;2022-09-03T15:09:29;69109.13;;;29.33;29.50
44144;BME280;43510;51.920;4.492;2022-09-03T15:12:00;69095.97;;;29.19;29.24
44144;BME280;43510;51.920;4.492;2022-09-03T15:17:25;69099.91;;;29.22;29.51
44144;BME280;43510;51.920;4.492;2022-09-03T15:20:04;69095.97;;;29.19;29.32
44144;BME280;43510;51.920;4.492;2022-09-03T15:30:44;69097.78;;;29.23;29.96
44144;BME280;43510;51.920;4.492;2022-09-03T15:38:56;69092.56;;;29.16;29.67
44144;BME280;43510;51.920;4.492;2022-09-03T15:41:40;69086.19;;;29.08;30.43
44144;BME280;43510;51.920;4.492;2022-09-03T15:44:13;69085.09;;;29.07;30.52
44144;BME280;43510;51.920;4.492;2022-09-03T15:46:47;69083.50;;;29.08;30.58
44144;BME280;43510;51.920;4.492;2022-09-03T15:49:43;69077.16;;;29.00;30.62
44144;BME280;43510;51.920;4.492;2022-09-03T15:57:36;69075.88;;;28.96;30.08
44144;BME280;43510;51.920;4.492;2022-09-03T16:00:15;69068.81;;;28.95;30.27
44144;BME280;43510;51.920;4.492;2022-09-03T16:05:37;69069.81;;;28.93;30.09
44144;BME280;43510;51.920;4.492;2022-09-03T16:08:17;69062.00;;;28.89;30.23
44144;BME280;43510;51.920;4.492;2022-09-03T16:16:06;69060.16;;;28.85;30.11
44144;BME280;43510;51.920;4.492;2022-09-03T16:18:45;69058.50;;;28.83;29.82
44144;BME280;43510;51.920;4.492;2022-09-03T16:21:41;69063.16;;;28.90;29.59
44144;BME280;43510;51.920;4.492;2022-09-03T16:27:15;69056.78;;;28.81;29.63
44144;BME280;43510;51.920;4.492;2022-09-03T16:29:54;69050.13;;;28.78;29.93
44144;BME280;43510;51.920;4.492;2022-09-03T16:38:42;69045.03;;;28.73;30.33
44144;BME280;43510;51.920;4.492;2022-09-03T16:41:24;69037.09;;;28.66;30.19
44144;BME280;43510;51.920;4.492;2022-09-03T16:46:41;69034.69;;;28.62;29.86
44144;BME280;43510;51.920;4.492;2022-09-03T16:51:56;69026.78;;;28.55;29.73
44144;BME280;43510;51.920;4.492;2022-09-03T17:00:27;69016.75;;;28.48;30.05
44144;BME280;43510;51.920;4.492;2022-09-03T17:03:21;69023.41;;;28.52;29.74